Gowganda, Canada
Current Conditions -  °F | °C
As of 3:29 PM on Monday 24 Nov 2014 (Local Time) from CYXR Reporting Station
Overcast Overcast  
Wind Chill: 38°   Ceiling: 1300
Heat Index: 45°   Visibility: 9mi
Dew Point: 43°   Wind: 15mph
Humidity: 93%   Direction: 200°SSW
Pressure: 28.9"   Gusts: 23mph
Location:  47.65°N, 80.78°W
Report Text: CYXR 242029Z AUTO 20013G20KT 9SM BKN013 OVC019 07/06 A2890 RMK SLP793 DENSITY ALT 1100FT
Loading
Personal Weather Stations






























Interactive Weather Map New forecast layout! Learn more

10-Day Weather Forecast

Advertisements
Track Severe Weather on mobile